createdAt,value
2023-04-19T00:00:12.298Z,16.70
2023-04-19T00:02:42.805Z,16.92
2023-04-19T00:05:12.001Z,17.77
2023-04-19T00:07:40.480Z,18.27
2023-04-19T00:10:09.808Z,16.40
2023-04-19T00:12:38.072Z,19.02
2023-04-19T00:15:08.735Z,14.05
2023-04-19T00:17:36.930Z,15.80
2023-04-19T00:20:06.610Z,18.45
2023-04-19T00:22:34.850Z,15.60
2023-04-19T00:25:03.874Z,14.82
2023-04-19T00:27:32.001Z,14.70
2023-04-19T00:30:00.112Z,17.60
2023-04-19T00:32:29.719Z,14.60
2023-04-19T00:34:57.806Z,14.88
2023-04-19T00:37:25.857Z,15.02
2023-04-19T00:39:53.936Z,15.20
2023-04-19T00:42:22.169Z,14.25
2023-04-19T00:44:50.208Z,14.25
2023-04-19T00:47:18.497Z,13.48
2023-04-19T00:49:48.223Z,12.43
2023-04-19T00:52:16.497Z,13.85
2023-04-19T00:54:45.804Z,12.50
2023-04-19T00:57:13.850Z,14.00
2023-04-19T00:59:43.260Z,14.85
2023-04-19T01:02:11.574Z,13.40
2023-04-19T01:04:39.839Z,13.20
2023-04-19T01:07:10.158Z,13.02
2023-04-19T01:09:42.184Z,12.93
2023-04-19T01:12:10.274Z,14.10
2023-04-19T01:14:38.381Z,11.52
2023-04-19T01:17:07.440Z,13.40
2023-04-19T01:19:36.446Z,11.63
2023-04-19T01:22:06.498Z,10.48
2023-04-19T01:24:35.968Z,11.57
2023-04-19T01:27:04.089Z,14.70
2023-04-19T01:29:32.162Z,11.60
2023-04-19T01:32:00.221Z,15.18
2023-04-19T01:34:28.613Z,15.60
2023-04-19T01:36:56.680Z,10.40
2023-04-19T01:39:27.533Z,11.98
2023-04-19T01:41:57.037Z,10.82
2023-04-19T01:44:25.160Z,13.50
2023-04-19T01:46:53.235Z,13.52
2023-04-19T01:49:21.331Z,12.35
2023-04-19T01:51:49.420Z,11.80
2023-04-19T01:54:17.773Z,9.93
2023-04-19T01:56:45.930Z,11.10
2023-04-19T01:59:15.376Z,11.13
2023-04-19T02:01:43.492Z,12.77
2023-04-19T02:04:11.691Z,14.00
2023-04-19T02:06:39.795Z,11.40
2023-04-19T02:09:08.268Z,14.60
2023-04-19T02:11:36.353Z,12.13
2023-04-19T02:14:04.428Z,14.48
2023-04-19T02:16:36.067Z,14.50
2023-04-19T02:19:04.522Z,14.02
2023-04-19T02:21:32.931Z,15.18
2023-04-19T02:24:01.175Z,15.45
2023-04-19T02:26:29.262Z,13.52
2023-04-19T02:28:57.382Z,12.75
2023-04-19T02:31:25.560Z,14.73
2023-04-19T02:33:55.047Z,12.73
2023-04-19T02:36:23.122Z,14.60
2023-04-19T02:38:51.194Z,13.18
2023-04-19T02:41:19.530Z,15.10
2023-04-19T02:43:47.584Z,14.70
2023-04-19T02:46:15.700Z,14.05
2023-04-19T02:48:43.796Z,13.23
2023-04-19T02:51:17.827Z,15.85
2023-04-19T02:53:45.884Z,13.15
2023-04-19T02:56:13.970Z,12.93
2023-04-19T02:58:42.042Z,16.23
2023-04-19T03:01:10.967Z,16.90
2023-04-19T03:03:39.273Z,15.80
2023-04-19T03:06:07.719Z,16.85
2023-04-19T03:08:37.428Z,16.83
2023-04-19T03:11:05.613Z,14.77
2023-04-19T03:13:33.679Z,14.55
2023-04-19T03:16:03.093Z,14.13
2023-04-19T03:18:31.459Z,14.70
2023-04-19T03:20:59.747Z,18.88
2023-04-19T03:23:28.007Z,16.10
2023-04-19T03:25:57.644Z,17.45
2023-04-19T03:28:25.774Z,15.82
2023-04-19T03:30:54.127Z,17.17
2023-04-19T03:33:22.231Z,13.32
2023-04-19T03:35:50.335Z,16.40
2023-04-19T03:38:18.429Z,15.10
2023-04-19T03:40:47.137Z,15.93
2023-04-19T03:43:16.599Z,13.98
2023-04-19T03:45:44.650Z,12.55
2023-04-19T03:48:12.704Z,15.75
2023-04-19T03:50:40.754Z,18.20
2023-04-19T03:53:08.843Z,12.65
2023-04-19T03:55:36.924Z,14.63
2023-04-19T03:58:05.021Z,14.38
2023-04-19T04:00:34.469Z,13.57
2023-04-19T04:03:02.798Z,15.40
2023-04-19T04:05:31.622Z,14.90
2023-04-19T04:07:59.776Z,14.13
2023-04-19T04:10:27.940Z,12.60
2023-04-19T04:12:56.063Z,12.30
2023-04-19T04:15:24.134Z,11.77
2023-04-19T04:17:53.611Z,13.70
2023-04-19T04:20:22.141Z,10.80
2023-04-19T04:22:50.569Z,10.20
2023-04-19T04:25:20.553Z,11.10
2023-04-19T04:27:52.145Z,9.85
2023-04-19T04:30:20.235Z,9.77
2023-04-19T04:32:51.286Z,10.25
2023-04-19T04:35:20.928Z,11.07
2023-04-19T04:37:50.575Z,8.95
2023-04-19T04:40:18.770Z,10.27
2023-04-19T04:42:46.849Z,10.20
2023-04-19T04:45:18.121Z,11.63
2023-04-19T04:47:47.306Z,6.97
2023-04-19T04:50:15.531Z,8.77
2023-04-19T04:52:44.968Z,8.07
2023-04-19T04:55:13.021Z,8.88
2023-04-19T04:57:41.104Z,7.18
2023-04-19T05:00:10.867Z,9.57
2023-04-19T05:02:39.012Z,8.63
2023-04-19T05:05:07.861Z,12.85
2023-04-19T05:07:35.915Z,5.82
2023-04-19T05:10:05.816Z,12.57
2023-04-19T05:12:33.940Z,5.82
2023-04-19T05:15:01.982Z,6.63
2023-04-19T05:17:30.065Z,6.28
2023-04-19T05:19:58.140Z,7.38
2023-04-19T05:22:26.422Z,5.47
2023-04-19T05:24:55.080Z,7.68
2023-04-19T05:27:24.507Z,10.65
2023-04-19T05:29:53.626Z,6.55
2023-04-19T05:32:21.810Z,14.05
2023-04-19T05:34:49.896Z,6.90
2023-04-19T05:37:18.000Z,8.18
2023-04-19T05:39:46.060Z,5.43
2023-04-19T05:42:14.126Z,5.18
2023-04-19T05:44:43.558Z,5.85
2023-04-19T05:47:12.084Z,6.13
2023-04-19T05:49:41.383Z,6.97
2023-04-19T05:52:11.232Z,5.47
2023-04-19T05:54:39.300Z,6.20
2023-04-19T05:57:07.437Z,5.70
2023-04-19T05:59:35.532Z,7.72
2023-04-19T06:02:05.128Z,5.53
2023-04-19T06:04:33.347Z,5.82
2023-04-19T06:07:01.521Z,7.65
2023-04-19T06:09:30.143Z,6.15
2023-04-19T06:11:58.199Z,4.18
2023-04-19T06:14:28.410Z,4.82
2023-04-19T06:16:56.986Z,5.18
2023-04-19T06:19:26.860Z,5.30
2023-04-19T06:21:54.948Z,5.07
2023-04-19T06:24:23.012Z,6.72
2023-04-19T06:26:51.053Z,4.75
2023-04-19T06:29:20.405Z,6.50
2023-04-19T06:31:48.556Z,6.03
2023-04-19T06:34:17.144Z,7.28
2023-04-19T06:36:46.883Z,6.68
2023-04-19T06:39:16.054Z,5.45
2023-04-19T06:41:44.116Z,4.80
2023-04-19T06:44:13.394Z,5.78
2023-04-19T06:46:41.833Z,9.57
2023-04-19T06:49:09.897Z,5.70
2023-04-19T06:51:38.888Z,5.13
2023-04-19T06:54:08.748Z,5.28
2023-04-19T06:56:45.669Z,4.75
2023-04-19T06:59:16.541Z,6.80
2023-04-19T07:01:44.736Z,5.50
2023-04-19T07:04:14.084Z,5.50
2023-04-19T07:06:42.346Z,8.82
2023-04-19T07:09:11.795Z,6.63
2023-04-19T07:11:40.216Z,7.47
2023-04-19T07:14:08.585Z,10.25
2023-04-19T07:16:36.669Z,8.50
2023-04-19T07:19:04.745Z,7.68
2023-04-19T07:21:33.545Z,7.43
2023-04-19T07:24:01.764Z,5.45
2023-04-19T07:26:31.371Z,6.13
2023-04-19T07:28:59.805Z,7.00
2023-04-19T07:31:28.662Z,5.35
2023-04-19T07:33:56.790Z,5.65
2023-04-19T07:36:24.845Z,4.63
2023-04-19T07:38:52.915Z,10.27
2023-04-19T07:41:21.117Z,5.65
2023-04-19T07:43:50.579Z,5.53
2023-04-19T07:46:18.823Z,5.57
2023-04-19T07:48:47.278Z,6.20
2023-04-19T07:51:17.466Z,7.90
2023-04-19T07:53:47.353Z,7.43
2023-04-19T07:56:15.648Z,6.90
2023-04-19T07:58:45.114Z,11.98
2023-04-19T08:01:16.323Z,6.35
2023-04-19T08:03:44.688Z,9.18
2023-04-19T08:06:14.229Z,6.47
2023-04-19T08:08:42.385Z,5.70
2023-04-19T08:11:10.438Z,5.70
2023-04-19T08:13:39.937Z,6.25
2023-04-19T08:18:41.132Z,7.15
2023-04-19T08:21:09.232Z,5.95
2023-04-19T08:23:47.440Z,5.20
2023-04-19T08:26:16.519Z,7.72
2023-04-19T08:28:44.705Z,7.50
2023-04-19T08:31:12.768Z,8.23
2023-04-19T08:33:42.188Z,7.47
2023-04-19T08:36:10.796Z,7.07
2023-04-19T08:38:39.498Z,8.02
2023-04-19T08:41:07.561Z,7.47
2023-04-19T08:43:39.760Z,7.85
2023-04-19T08:46:09.912Z,7.72
2023-04-19T08:48:38.948Z,12.35
2023-04-19T08:51:09.530Z,7.03
2023-04-19T08:53:38.799Z,6.60
2023-04-19T08:56:17.998Z,8.93
2023-04-19T08:59:04.497Z,7.28
2023-04-19T09:01:42.926Z,7.88
2023-04-19T09:06:45.320Z,10.55
2023-04-19T09:11:49.108Z,5.43
2023-04-19T09:14:19.008Z,6.65
2023-04-19T09:16:47.498Z,6.65
2023-04-19T09:19:23.922Z,6.38
2023-04-19T09:21:55.001Z,6.00
2023-04-19T09:27:12.878Z,7.20
2023-04-19T09:29:40.986Z,7.63
2023-04-19T09:32:09.165Z,5.95
2023-04-19T09:34:37.318Z,5.53
2023-04-19T09:37:29.499Z,5.53
2023-04-19T09:40:23.403Z,8.52
2023-04-19T09:48:03.597Z,8.25
2023-04-19T09:50:33.497Z,9.88
2023-04-19T09:53:05.372Z,5.07
2023-04-19T09:55:45.121Z,7.05
2023-04-19T09:58:29.290Z,6.07
2023-04-19T10:01:13.533Z,5.00
2023-04-19T10:03:45.703Z,6.22
2023-04-19T10:06:37.359Z,4.85
2023-04-19T10:09:07.152Z,4.25
2023-04-19T10:11:38.889Z,4.20
2023-04-19T10:14:08.790Z,5.68
2023-04-19T10:16:38.464Z,4.47
2023-04-19T10:19:11.460Z,6.10
2023-04-19T10:21:40.916Z,4.20
2023-04-19T10:24:13.864Z,4.95
2023-04-19T10:27:08.620Z,5.60
2023-04-19T10:30:07.477Z,4.68
2023-04-19T10:32:40.396Z,4.07
2023-04-19T10:35:18.538Z,3.63
2023-04-19T10:38:08.344Z,3.53
2023-04-19T10:40:57.117Z,3.75
2023-04-19T10:43:27.172Z,6.40
2023-04-19T10:46:00.067Z,3.80
2023-04-19T10:48:44.020Z,3.65
2023-04-19T10:51:16.976Z,2.65
2023-04-19T10:53:53.542Z,3.05
2023-04-19T10:56:44.732Z,3.35
2023-04-19T10:59:24.954Z,2.72
2023-04-19T11:01:58.376Z,4.78
2023-04-19T11:05:09.787Z,3.97
2023-04-19T11:07:42.101Z,4.68
2023-04-19T11:10:12.466Z,2.70
2023-04-19T11:12:45.920Z,2.92
2023-04-19T11:15:14.203Z,2.60
2023-04-19T11:17:42.793Z,1.67
2023-04-19T11:20:13.534Z,3.45
2023-04-19T11:22:43.003Z,4.60
2023-04-19T11:25:13.285Z,3.22
2023-04-19T11:27:42.943Z,4.95
2023-04-19T11:30:14.552Z,2.85
2023-04-19T11:32:49.370Z,2.88
2023-04-19T11:35:20.935Z,4.18
2023-04-19T11:37:49.225Z,1.60
2023-04-19T11:40:17.886Z,2.08
2023-04-19T11:42:48.635Z,2.13
2023-04-19T11:45:32.278Z,2.40
2023-04-19T11:48:02.073Z,3.03
2023-04-19T11:50:38.224Z,4.35
2023-04-19T11:53:15.565Z,2.30
2023-04-19T11:55:45.380Z,1.40
2023-04-19T11:58:25.443Z,2.38
2023-04-19T12:00:55.725Z,1.50
2023-04-19T12:03:26.485Z,3.03
2023-04-19T12:05:56.770Z,2.63
2023-04-19T12:08:36.208Z,3.90
2023-04-19T12:11:05.794Z,2.85
2023-04-19T12:13:34.878Z,3.97
2023-04-19T12:16:05.172Z,1.70
2023-04-19T12:18:48.701Z,1.58
2023-04-19T12:21:27.499Z,1.95
2023-04-19T12:23:56.997Z,2.38
2023-04-19T12:26:25.657Z,2.75
2023-04-19T12:28:54.753Z,2.22
2023-04-19T12:31:24.295Z,5.85
2023-04-19T12:33:52.523Z,2.45
2023-04-19T12:36:21.600Z,2.15
2023-04-19T12:38:49.747Z,3.05
2023-04-19T12:41:17.894Z,1.77
2023-04-19T12:43:46.001Z,1.30
2023-04-19T12:46:14.171Z,5.88
2023-04-19T12:48:43.774Z,4.05
2023-04-19T12:51:11.943Z,1.70
2023-04-19T12:53:40.047Z,1.48
2023-04-19T12:56:08.213Z,5.75
2023-04-19T12:58:36.334Z,2.47
2023-04-19T13:01:04.521Z,2.40
2023-04-19T13:03:36.443Z,2.85
2023-04-19T13:06:07.020Z,4.22
2023-04-19T13:08:44.879Z,3.88
2023-04-19T13:11:15.898Z,1.88
2023-04-19T13:13:44.136Z,2.42
2023-04-19T13:16:12.266Z,3.63
2023-04-19T13:18:40.444Z,2.22
2023-04-19T13:21:09.932Z,1.85
2023-04-19T13:23:38.135Z,5.38
2023-04-19T13:26:06.448Z,1.70
2023-04-19T13:28:36.678Z,2.65
2023-04-19T13:31:05.837Z,3.33
2023-04-19T13:33:34.284Z,3.03
2023-04-19T13:36:02.405Z,2.20
2023-04-19T13:38:31.894Z,2.22
2023-04-19T13:41:00.818Z,4.25
2023-04-19T13:43:28.897Z,2.80
2023-04-19T13:45:58.317Z,2.03
2023-04-19T13:48:28.736Z,2.35
2023-04-19T13:50:57.477Z,1.92
2023-04-19T13:53:27.079Z,1.75
2023-04-19T13:55:57.014Z,2.05
2023-04-19T13:58:25.673Z,2.00
2023-04-19T14:00:54.189Z,3.25
2023-04-19T14:03:23.599Z,4.25
2023-04-19T14:05:51.909Z,6.47
2023-04-19T14:08:20.054Z,2.65
2023-04-19T14:10:48.188Z,2.30
2023-04-19T14:13:17.933Z,3.60
2023-04-19T14:15:46.480Z,2.40
2023-04-19T14:18:14.594Z,2.60
2023-04-19T14:20:42.724Z,5.90
2023-04-19T14:23:11.361Z,3.85
2023-04-19T14:25:39.448Z,3.38
2023-04-19T14:28:07.757Z,4.43
2023-04-19T14:30:37.194Z,4.85
2023-04-19T14:33:05.374Z,4.05
2023-04-19T14:35:33.763Z,2.65
2023-04-19T14:38:01.891Z,4.35
2023-04-19T14:40:29.989Z,4.75
2023-04-19T14:42:58.045Z,3.50
2023-04-19T14:45:27.410Z,2.95
2023-04-19T14:47:56.895Z,2.83
2023-04-19T14:50:25.255Z,4.43
2023-04-19T14:52:54.646Z,3.35
2023-04-19T14:55:24.888Z,5.45
2023-04-19T14:57:52.988Z,3.35
2023-04-19T15:00:21.566Z,2.25
2023-04-19T15:02:49.821Z,3.28
2023-04-19T15:05:19.832Z,5.75
2023-04-19T15:07:48.035Z,4.93
2023-04-19T15:10:16.152Z,3.00
2023-04-19T15:12:44.251Z,3.15
2023-04-19T15:15:12.903Z,3.88
2023-04-19T15:17:41.195Z,5.38
2023-04-19T15:20:10.411Z,3.85
2023-04-19T15:22:39.866Z,3.00
2023-04-19T15:25:08.274Z,4.07
2023-04-19T15:27:36.681Z,3.35
2023-04-19T15:30:05.359Z,5.18
2023-04-19T15:32:36.550Z,3.42
2023-04-19T15:35:05.123Z,5.13
2023-04-19T15:37:33.177Z,5.15
2023-04-19T15:40:02.636Z,4.57
2023-04-19T15:42:30.748Z,2.92
2023-04-19T15:44:58.813Z,3.78
2023-04-19T15:47:27.004Z,3.70
2023-04-19T15:49:55.136Z,2.35
2023-04-19T15:52:23.193Z,4.97
2023-04-19T15:54:52.078Z,2.75
2023-04-19T15:57:21.535Z,2.75
2023-04-19T15:59:49.599Z,3.88
2023-04-19T16:02:17.744Z,6.82
2023-04-19T16:04:48.372Z,3.97
2023-04-19T16:07:16.557Z,4.85
2023-04-19T16:09:44.614Z,2.67
2023-04-19T16:12:12.705Z,2.50
2023-04-19T16:14:42.154Z,2.50
2023-04-19T16:17:10.247Z,5.60
2023-04-19T16:19:38.319Z,4.78
2023-04-19T16:22:06.401Z,4.93
2023-04-19T16:24:34.465Z,3.22
2023-04-19T16:27:02.748Z,3.83
2023-04-19T16:29:31.180Z,5.07
2023-04-19T16:32:00.956Z,2.63
2023-04-19T16:34:29.075Z,2.47
2023-04-19T16:36:57.235Z,2.88
2023-04-19T16:39:25.321Z,6.03
2023-04-19T16:41:53.405Z,4.50
2023-04-19T16:44:21.744Z,2.50
2023-04-19T16:46:49.806Z,2.47
2023-04-19T16:49:20.054Z,4.63
2023-04-19T16:51:48.124Z,1.88
2023-04-19T16:54:16.217Z,2.72
2023-04-19T16:56:44.384Z,3.25
2023-04-19T16:59:12.454Z,4.75
2023-04-19T17:01:40.618Z,2.88
2023-04-19T17:04:08.876Z,3.65
2023-04-19T17:06:38.578Z,5.60
2023-04-19T17:09:07.767Z,2.08
2023-04-19T17:11:35.855Z,2.88
2023-04-19T17:14:03.912Z,2.75
2023-04-19T17:16:31.967Z,4.65
2023-04-19T17:19:00.037Z,3.47
2023-04-19T17:21:28.618Z,4.28
2023-04-19T17:23:58.079Z,3.05
2023-04-19T17:26:26.481Z,2.38
2023-04-19T17:28:54.589Z,3.03
2023-04-19T17:31:22.777Z,5.57
2023-04-19T17:33:51.020Z,5.05
2023-04-19T17:36:19.141Z,6.28
2023-04-19T17:38:47.226Z,3.90
2023-04-19T17:41:17.089Z,2.92
2023-04-19T17:43:45.579Z,4.75
2023-04-19T17:46:14.477Z,3.38
2023-04-19T17:48:42.617Z,3.30
2023-04-19T17:51:10.681Z,2.58
2023-04-19T17:53:38.750Z,1.98
2023-04-19T17:56:06.952Z,5.07
2023-04-19T17:58:36.638Z,3.47
2023-04-19T18:01:06.477Z,3.40
2023-04-19T18:03:34.875Z,3.22
2023-04-19T18:06:03.073Z,7.15
2023-04-19T18:08:31.128Z,2.60
2023-04-19T18:10:59.233Z,5.68
2023-04-19T18:13:27.622Z,3.75
2023-04-19T18:15:57.466Z,2.58
2023-04-19T18:18:25.946Z,3.90
2023-04-19T18:20:54.029Z,3.75
2023-04-19T18:23:22.178Z,4.80
2023-04-19T18:25:54.611Z,2.38
2023-04-19T18:28:22.748Z,4.27
2023-04-19T18:30:51.423Z,4.00
2023-04-19T18:33:20.912Z,4.60
2023-04-19T18:35:48.998Z,2.97
2023-04-19T18:38:17.090Z,3.40
2023-04-19T18:40:45.151Z,1.75
2023-04-19T18:43:13.366Z,2.85
2023-04-19T18:45:41.468Z,1.92
2023-04-19T18:48:09.785Z,3.35
2023-04-19T18:50:39.402Z,3.78
2023-04-19T18:53:07.490Z,2.67
2023-04-19T18:55:35.772Z,3.45
2023-04-19T18:58:04.058Z,4.95
2023-04-19T19:00:32.121Z,3.90
2023-04-19T19:03:01.914Z,5.07
2023-04-19T19:05:31.024Z,2.95
2023-04-19T19:08:01.165Z,2.70
2023-04-19T19:13:00.240Z,2.47
2023-04-19T19:15:28.470Z,3.65
2023-04-19T19:17:56.624Z,4.32
2023-04-19T19:20:24.967Z,4.32
2023-04-19T19:22:53.104Z,4.25
2023-04-19T19:25:22.908Z,3.00
2023-04-19T19:28:06.239Z,3.38
2023-04-19T19:30:39.724Z,1.92
2023-04-19T19:33:08.180Z,2.53
2023-04-19T19:35:36.405Z,5.03
2023-04-19T19:38:04.628Z,2.60
2023-04-19T19:40:34.637Z,2.72
2023-04-19T19:43:03.343Z,3.08
2023-04-19T19:45:32.337Z,4.43
2023-04-19T19:48:00.866Z,2.10
2023-04-19T19:53:01.486Z,3.38
2023-04-19T19:55:30.184Z,3.13
2023-04-19T20:00:45.035Z,4.70
2023-04-19T20:03:21.805Z,3.90
2023-04-19T20:06:03.889Z,4.82
2023-04-19T20:08:47.460Z,2.13
2023-04-19T20:11:15.598Z,3.78
2023-04-19T20:13:45.721Z,3.25
2023-04-19T20:16:14.687Z,3.60
2023-04-19T20:18:44.037Z,4.55
2023-04-19T20:21:12.117Z,3.30
2023-04-19T20:23:40.716Z,5.38
2023-04-19T20:26:09.216Z,4.47
2023-04-19T20:28:39.756Z,3.85
2023-04-19T20:31:09.187Z,4.05
2023-04-19T20:33:37.643Z,4.47
2023-04-19T20:36:06.731Z,4.20
2023-04-19T20:38:35.252Z,4.72
2023-04-19T20:41:03.394Z,8.15
2023-04-19T20:43:31.700Z,4.00
2023-04-19T20:45:59.870Z,4.22
2023-04-19T20:48:29.432Z,5.32
2023-04-19T20:50:57.715Z,5.18
2023-04-19T20:53:25.782Z,4.15
2023-04-19T20:55:53.898Z,3.75
2023-04-19T20:58:21.986Z,4.60
2023-04-19T21:00:50.782Z,6.95
2023-04-19T21:03:19.087Z,5.60
2023-04-19T21:05:48.673Z,4.15
2023-04-19T21:08:18.715Z,4.55
2023-04-19T21:10:46.784Z,5.38
2023-04-19T21:13:14.875Z,7.95
2023-04-19T21:15:43.086Z,8.43
2023-04-19T21:18:11.241Z,3.80
2023-04-19T21:20:39.460Z,4.63
2023-04-19T21:23:08.912Z,4.75
2023-04-19T21:25:37.165Z,6.65
2023-04-19T21:28:05.346Z,4.78
2023-04-19T21:30:33.574Z,4.88
2023-04-19T21:33:01.766Z,4.05
2023-04-19T21:35:29.861Z,6.10
2023-04-19T21:37:57.932Z,3.97
2023-04-19T21:40:27.516Z,5.10
2023-04-19T21:42:58.167Z,6.00
2023-04-19T21:45:26.471Z,4.15
2023-04-19T21:47:54.576Z,4.38
2023-04-19T21:50:22.901Z,3.85
2023-04-19T21:52:50.988Z,6.07
2023-04-19T21:55:19.226Z,6.70
2023-04-19T21:57:49.955Z,5.22
2023-04-19T22:00:19.097Z,5.70
2023-04-19T22:02:47.284Z,7.13
2023-04-19T22:05:16.710Z,4.82
2023-04-19T22:07:45.190Z,5.78
2023-04-19T22:10:13.733Z,7.15
2023-04-19T22:12:55.065Z,9.98
2023-04-19T22:15:27.985Z,8.02
2023-04-19T22:17:57.220Z,5.45
2023-04-19T22:20:25.957Z,5.03
2023-04-19T22:22:54.044Z,6.75
2023-04-19T22:25:22.631Z,5.65
2023-04-19T22:27:50.956Z,7.20
2023-04-19T22:30:19.015Z,5.32
2023-04-19T22:32:48.488Z,8.40
2023-04-19T22:35:16.730Z,6.45
2023-04-19T22:37:44.845Z,7.10
2023-04-19T22:40:13.915Z,5.93
2023-04-19T22:42:41.981Z,5.55
2023-04-19T22:45:11.156Z,4.30
2023-04-19T22:47:39.222Z,3.88
2023-04-19T22:50:10.011Z,6.18
2023-04-19T22:52:38.438Z,6.93
2023-04-19T22:55:07.820Z,5.30
2023-04-19T22:57:35.908Z,5.47
2023-04-19T23:00:05.718Z,5.72
2023-04-19T23:02:33.939Z,6.18
2023-04-19T23:05:04.873Z,4.43
2023-04-19T23:07:34.441Z,7.05
2023-04-19T23:10:03.084Z,4.47
2023-04-19T23:12:33.547Z,4.97
2023-04-19T23:15:02.097Z,8.95
2023-04-19T23:17:30.279Z,7.72
2023-04-19T23:19:58.388Z,5.38
2023-04-19T23:22:26.523Z,8.68
2023-04-19T23:24:56.078Z,7.07
2023-04-19T23:27:24.150Z,6.93
2023-04-19T23:29:52.248Z,9.48
2023-04-19T23:32:20.386Z,6.72
2023-04-19T23:34:48.465Z,8.05
2023-04-19T23:37:17.080Z,7.43
2023-04-19T23:39:45.234Z,6.40
2023-04-19T23:42:14.689Z,4.03
2023-04-19T23:44:43.997Z,5.28
2023-04-19T23:47:12.363Z,7.57
2023-04-19T23:49:40.466Z,7.47
2023-04-19T23:52:08.544Z,5.47
2023-04-19T23:54:36.611Z,4.50
2023-04-19T23:57:04.863Z,6.80
2023-04-19T23:59:36.308Z,4.93
